Terminal Aerodrome Forecast
Issued by NWS Mt. Holly, NJ

Home | Current Version | Previous Version | Text Only | Print | Product List | Glossary On
Versions: 1 2 3 4 5 6 7 8 9 10 11 12 13 14 15 16 17 18 19
000
FTUS41 KPHI 012300
TAFACY
TAF
KACY 012333Z 0200/0224 01006KT P6SM SCT030 OVC040
      TEMPO 0200/0204 BKN030
     FM020400 36007KT P6SM BKN018
     FM020800 36006KT 5SM BR BKN010
     FM021400 36010KT P6SM BKN020
     FM021700 02012KT P6SM SCT020 BKN035=

USA.gov is the U.S. government's official web portal to all federal, state and local government web resources and services.